createdAt,value
2017-02-06T00:00:22.120Z,23.7
2017-02-06T00:01:02.962Z,23.57
2017-02-06T00:01:43.710Z,23.39
2017-02-06T00:02:24.571Z,23.32
2017-02-06T00:03:05.363Z,23.22
2017-02-06T00:03:46.181Z,23.1
2017-02-06T00:04:26.870Z,22.98
2017-02-06T00:05:07.636Z,22.85
2017-02-06T00:05:48.450Z,22.79
2017-02-06T00:06:29.273Z,22.77
2017-02-06T00:07:09.994Z,22.7
2017-02-06T00:07:50.714Z,22.58
2017-02-06T00:08:31.443Z,22.54
2017-02-06T00:09:12.227Z,22.61
2017-02-06T00:09:53.558Z,22.57
2017-02-06T00:10:34.280Z,22.61
2017-02-06T00:11:15.086Z,22.55
2017-02-06T00:11:55.874Z,22.91
2017-02-06T00:12:36.615Z,23.36
2017-02-06T00:13:17.367Z,23.91
2017-02-06T00:13:58.152Z,24.49
2017-02-06T00:14:38.920Z,24.88
2017-02-06T00:15:19.671Z,25.27
2017-02-06T00:16:00.474Z,25.61
2017-02-06T00:16:41.244Z,25.88
2017-02-06T00:17:22.039Z,26.07
2017-02-06T00:18:02.799Z,26.28
2017-02-06T00:18:43.624Z,25.99
2017-02-06T00:19:24.382Z,25.32
2017-02-06T00:20:05.122Z,24.6
2017-02-06T00:20:45.879Z,24.32
2017-02-06T00:21:26.655Z,24.2
2017-02-06T00:22:07.555Z,23.9
2017-02-06T00:22:48.284Z,23.66
2017-02-06T00:23:29.043Z,23.48
2017-02-06T00:24:09.813Z,23.33
2017-02-06T00:24:50.520Z,23.1
2017-02-06T00:25:31.327Z,23.12
2017-02-06T00:26:12.110Z,23.01
2017-02-06T00:26:52.842Z,22.85
2017-02-06T00:27:33.633Z,22.86
2017-02-06T00:28:14.439Z,22.8
2017-02-06T00:28:55.147Z,22.61
2017-02-06T00:29:35.929Z,22.57
2017-02-06T00:30:16.688Z,22.6
2017-02-06T00:30:57.544Z,22.47
2017-02-06T00:31:38.319Z,22.46
2017-02-06T00:32:19.114Z,22.37
2017-02-06T00:32:59.907Z,22.28
2017-02-06T00:33:40.647Z,22.35
2017-02-06T00:34:21.409Z,22.55
2017-02-06T00:35:02.158Z,23.16
2017-02-06T00:35:42.895Z,23.61
2017-02-06T00:36:23.674Z,24.32
2017-02-06T00:37:04.397Z,24.62
2017-02-06T00:37:45.144Z,25.17
2017-02-06T00:38:25.912Z,25.55
2017-02-06T00:39:06.688Z,25.8
2017-02-06T00:41:06.916Z,25.97
2017-02-06T00:41:47.685Z,25.23
2017-02-06T00:42:28.468Z,24.45
2017-02-06T00:43:09.201Z,24.27
2017-02-06T00:43:49.951Z,23.98
2017-02-06T00:44:30.667Z,23.73
2017-02-06T00:45:11.432Z,23.47
2017-02-06T00:45:52.192Z,23.39
2017-02-06T00:46:32.955Z,23.23
2017-02-06T00:47:13.744Z,23.1
2017-02-06T00:47:54.520Z,22.97
2017-02-06T00:48:35.344Z,22.88
2017-02-06T00:49:16.053Z,22.83
2017-02-06T00:49:56.774Z,22.77
2017-02-06T00:50:37.446Z,22.62
2017-02-06T00:51:18.159Z,22.58
2017-02-06T00:51:58.895Z,22.57
2017-02-06T00:52:39.735Z,22.49
2017-02-06T00:53:20.458Z,22.4
2017-02-06T00:54:01.148Z,22.25
2017-02-06T00:54:42.012Z,22.46
2017-02-06T00:55:23.725Z,22.24
2017-02-06T00:56:04.519Z,22.22
2017-02-06T00:56:45.320Z,22.28
2017-02-06T00:57:26.056Z,22.22
2017-02-06T00:58:07.644Z,22.28
2017-02-06T00:58:47.656Z,22.64
2017-02-06T00:59:28.465Z,23.12
2017-02-06T01:00:09.206Z,23.68
2017-02-06T01:00:50.034Z,24.32
2017-02-06T01:01:30.765Z,24.83
2017-02-06T01:02:12.136Z,25.06
2017-02-06T01:02:52.257Z,25.58
2017-02-06T01:03:33.103Z,25.83
2017-02-06T01:04:13.853Z,25.95
2017-02-06T01:04:54.657Z,25.97
2017-02-06T01:05:35.413Z,25.39
2017-02-06T01:06:16.293Z,24.8
2017-02-06T01:06:57.021Z,24.39
2017-02-06T01:07:37.846Z,24.12
2017-02-06T01:08:18.698Z,23.78
2017-02-06T01:08:59.538Z,23.68
2017-02-06T01:09:40.274Z,23.46
2017-02-06T01:10:21.059Z,23.38
2017-02-06T01:11:01.759Z,23.31
2017-02-06T01:11:42.532Z,23.17
2017-02-06T01:12:23.404Z,22.88
2017-02-06T01:13:04.239Z,22.8
2017-02-06T01:13:45.028Z,22.82
2017-02-06T01:14:25.810Z,22.72
2017-02-06T01:15:07.102Z,22.6
2017-02-06T01:15:47.836Z,22.61
2017-02-06T01:16:28.666Z,22.47
2017-02-06T01:17:09.587Z,22.49
2017-02-06T01:17:50.338Z,22.4
2017-02-06T01:18:31.052Z,22.36
2017-02-06T01:19:11.827Z,22.28
2017-02-06T01:19:52.655Z,22.3
2017-02-06T01:20:33.383Z,22.25
2017-02-06T01:21:14.085Z,22.27
2017-02-06T01:21:54.894Z,22.15
2017-02-06T01:22:35.706Z,22.24
2017-02-06T01:23:16.528Z,22.61
2017-02-06T01:23:57.295Z,23.07
2017-02-06T01:24:38.017Z,23.7
2017-02-06T01:25:18.812Z,24.25
2017-02-06T01:25:59.606Z,24.8
2017-02-06T01:26:40.405Z,25.17
2017-02-06T01:27:21.654Z,25.54
2017-02-06T01:28:01.871Z,25.73
2017-02-06T01:28:42.565Z,26.01
2017-02-06T01:29:23.400Z,26.06
2017-02-06T01:30:04.148Z,25.55
2017-02-06T01:30:44.942Z,24.85
2017-02-06T01:31:25.699Z,24.34
2017-02-06T01:32:06.512Z,24.15
2017-02-06T01:32:47.272Z,24
2017-02-06T01:33:28.043Z,23.69
2017-02-06T01:34:08.785Z,23.51
2017-02-06T01:34:49.618Z,23.27
2017-02-06T01:35:30.388Z,23.12
2017-02-06T01:36:11.120Z,23.07
2017-02-06T01:36:51.919Z,22.97
2017-02-06T01:37:32.703Z,22.82
2017-02-06T01:39:23.617Z,22.55
2017-02-06T01:40:04.346Z,22.67
2017-02-06T01:40:45.754Z,22.46
2017-02-06T01:41:26.749Z,22.47
2017-02-06T01:42:06.637Z,22.37
2017-02-06T01:42:47.416Z,22.4
2017-02-06T01:43:28.233Z,22.31
2017-02-06T01:44:09.011Z,22.25
2017-02-06T01:44:49.817Z,22.27
2017-02-06T01:45:30.553Z,22.21
2017-02-06T01:46:11.356Z,22.25
2017-02-06T01:46:52.704Z,22.62
2017-02-06T01:47:33.519Z,23.04
2017-02-06T01:48:14.259Z,23.66
2017-02-06T01:48:55.020Z,24.2
2017-02-06T01:49:35.776Z,24.61
2017-02-06T01:50:16.586Z,25.08
2017-02-06T01:50:57.341Z,25.5
2017-02-06T01:51:38.082Z,25.69
2017-02-06T01:52:18.809Z,25.91
2017-02-06T01:52:59.622Z,26.06
2017-02-06T01:53:40.374Z,25.55
2017-02-06T01:54:21.160Z,24.85
2017-02-06T01:55:01.930Z,24.35
2017-02-06T01:55:43.255Z,24.2
2017-02-06T01:56:23.416Z,23.93
2017-02-06T01:57:04.173Z,23.73
2017-02-06T01:57:44.973Z,23.54
2017-02-06T01:58:25.741Z,23.38
2017-02-06T01:59:06.479Z,23.2
2017-02-06T01:59:47.234Z,23.16
2017-02-06T02:00:28.100Z,22.97
2017-02-06T02:01:08.845Z,22.85
2017-02-06T02:01:49.668Z,22.85
2017-02-06T02:02:30.373Z,22.8
2017-02-06T02:03:11.169Z,22.65
2017-02-06T02:03:51.970Z,22.58
2017-02-06T02:04:32.806Z,22.51
2017-02-06T02:05:13.631Z,22.51
2017-02-06T02:05:54.371Z,22.51
2017-02-06T02:06:35.074Z,22.51
2017-02-06T02:07:15.860Z,22.42
2017-02-06T02:07:56.678Z,22.43
2017-02-06T02:08:37.391Z,22.33
2017-02-06T02:09:18.118Z,22.43
2017-02-06T02:09:58.857Z,22.37
2017-02-06T02:10:39.632Z,22.28
2017-02-06T02:11:20.423Z,22.35
2017-02-06T02:12:01.224Z,22.58
2017-02-06T02:14:01.563Z,24.34
2017-02-06T02:14:42.312Z,24.68
2017-02-06T02:15:23.708Z,25.13
2017-02-06T02:16:03.838Z,25.36
2017-02-06T02:16:44.536Z,25.7
2017-02-06T02:17:25.440Z,26.01
2017-02-06T02:18:06.203Z,25.87
2017-02-06T02:18:46.913Z,25.23
2017-02-06T02:19:27.626Z,24.47
2017-02-06T02:20:08.393Z,24.25
2017-02-06T02:20:49.209Z,23.97
2017-02-06T02:21:29.936Z,23.73
2017-02-06T02:22:10.711Z,23.48
2017-02-06T02:22:51.451Z,23.32
2017-02-06T02:23:32.197Z,23.22
2017-02-06T02:24:12.981Z,23.17
2017-02-06T02:24:53.737Z,22.92
2017-02-06T02:25:34.586Z,22.9
2017-02-06T02:26:16.263Z,22.91
2017-02-06T02:26:57.077Z,22.83
2017-02-06T02:27:37.837Z,22.68
2017-02-06T02:28:18.664Z,22.62
2017-02-06T02:28:59.537Z,22.7
2017-02-06T02:29:40.346Z,22.52
2017-02-06T02:30:21.070Z,22.54
2017-02-06T02:31:01.878Z,22.46
2017-02-06T02:31:42.568Z,22.33
2017-02-06T02:32:23.391Z,22.39
2017-02-06T02:33:04.833Z,22.35
2017-02-06T02:33:45.556Z,22.33
2017-02-06T02:34:26.323Z,22.21
2017-02-06T02:35:07.720Z,22.22
2017-02-06T02:35:47.925Z,22.07
2017-02-06T02:36:28.638Z,22.14
2017-02-06T02:37:09.400Z,22.52
2017-02-06T02:37:50.305Z,23.07
2017-02-06T02:38:31.008Z,23.51
2017-02-06T02:39:11.730Z,24.18
2017-02-06T02:39:52.514Z,24.78
2017-02-06T02:40:33.292Z,25.2
2017-02-06T02:41:14.112Z,25.38
2017-02-06T02:41:54.844Z,25.79
2017-02-06T02:42:35.598Z,25.98
2017-02-06T02:44:31.263Z,24.62
2017-02-06T02:45:11.995Z,24.32
2017-02-06T02:45:52.742Z,24.09
2017-02-06T02:46:33.466Z,23.85
2017-02-06T02:47:14.281Z,23.65
2017-02-06T02:47:55.116Z,23.42
2017-02-06T02:48:35.835Z,23.28
2017-02-06T02:49:16.561Z,23.27
2017-02-06T02:49:57.340Z,23.15
2017-02-06T02:50:38.137Z,22.94
2017-02-06T02:51:18.875Z,23
2017-02-06T02:51:59.689Z,22.91
2017-02-06T02:52:40.502Z,22.73
2017-02-06T02:53:21.995Z,22.72
2017-02-06T02:54:02.128Z,22.61
2017-02-06T02:54:42.942Z,22.54
2017-02-06T02:55:23.697Z,22.55
2017-02-06T02:56:04.407Z,22.64
2017-02-06T02:56:45.262Z,22.52
2017-02-06T02:57:26.726Z,22.4
2017-02-06T02:58:07.589Z,22.35
2017-02-06T02:58:48.313Z,22.31
2017-02-06T02:59:29.018Z,22.22
2017-02-06T03:00:10.748Z,22.22
2017-02-06T03:00:52.235Z,22.2
2017-02-06T03:01:33.083Z,22.12
2017-02-06T03:02:13.908Z,22.49
2017-02-06T03:02:54.655Z,22.83
2017-02-06T03:03:35.447Z,23.43
2017-02-06T03:04:16.224Z,24.02
2017-02-06T03:04:56.948Z,24.57
2017-02-06T03:05:37.697Z,24.96
2017-02-06T03:06:18.479Z,25.36
2017-02-06T03:06:59.341Z,25.62
2017-02-06T03:07:40.095Z,25.9
2017-02-06T03:08:20.900Z,26.02
2017-02-06T03:09:01.666Z,25.4
2017-02-06T03:09:42.391Z,24.76
2017-02-06T03:10:23.200Z,24.31
2017-02-06T03:11:03.960Z,24.06
2017-02-06T03:11:44.780Z,23.84
2017-02-06T03:12:25.521Z,23.65
2017-02-06T03:13:06.277Z,23.46
2017-02-06T03:15:02.932Z,23.12
2017-02-06T03:15:43.685Z,23.01
2017-02-06T03:16:24.447Z,22.97
2017-02-06T03:17:05.201Z,22.94
2017-02-06T03:17:46.008Z,22.77
2017-02-06T03:18:27.395Z,22.73
2017-02-06T03:19:08.174Z,22.62
2017-02-06T03:19:48.901Z,22.68
2017-02-06T03:20:29.673Z,22.55
2017-02-06T03:21:10.489Z,22.47
2017-02-06T03:21:51.220Z,22.47
2017-02-06T03:22:32.032Z,22.39
2017-02-06T03:23:12.741Z,22.42
2017-02-06T03:23:53.525Z,22.42
2017-02-06T03:24:34.248Z,22.25
2017-02-06T03:25:14.947Z,22.27
2017-02-06T03:25:55.719Z,22.27
2017-02-06T03:26:36.508Z,22.2
2017-02-06T03:27:17.317Z,22.2
2017-02-06T03:27:58.073Z,22.12
2017-02-06T03:28:38.980Z,22.17
2017-02-06T03:29:19.746Z,22.52
2017-02-06T03:30:00.467Z,23.01
2017-02-06T03:30:41.249Z,23.57
2017-02-06T03:31:22.018Z,24.27
2017-02-06T03:32:02.753Z,24.61
2017-02-06T03:32:43.591Z,25.08
2017-02-06T03:33:24.274Z,25.42
2017-02-06T03:34:05.043Z,25.7
2017-02-06T03:34:45.848Z,25.88
2017-02-06T03:35:26.668Z,25.94
2017-02-06T03:36:07.459Z,25.4
2017-02-06T03:36:48.269Z,24.73
2017-02-06T03:37:29.049Z,24.42
2017-02-06T03:38:09.897Z,24.06
2017-02-06T03:38:50.635Z,23.78
2017-02-06T03:39:31.492Z,23.66
2017-02-06T03:40:12.295Z,23.47
2017-02-06T03:40:53.023Z,23.31
2017-02-06T03:41:33.847Z,23.17
2017-02-06T03:42:15.134Z,23.07
2017-02-06T03:42:55.430Z,22.95
2017-02-06T03:43:36.157Z,22.86
2017-02-06T03:44:16.926Z,22.76
2017-02-06T03:44:57.720Z,22.79
2017-02-06T03:45:39.371Z,22.72
2017-02-06T03:46:20.147Z,22.61
2017-02-06T03:47:00.924Z,22.49
2017-02-06T03:47:41.638Z,22.47
2017-02-06T03:48:22.402Z,22.49
2017-02-06T03:49:03.141Z,22.37
2017-02-06T03:49:43.973Z,22.4
2017-02-06T03:50:24.635Z,22.4
2017-02-06T03:51:05.401Z,22.3
2017-02-06T03:51:46.164Z,22.22
2017-02-06T03:52:26.999Z,22.25
2017-02-06T03:53:08.426Z,22.18
2017-02-06T03:53:49.239Z,22.15
2017-02-06T03:54:30.641Z,22.25
2017-02-06T03:55:10.722Z,22.7
2017-02-06T03:55:51.466Z,23.19
2017-02-06T03:56:32.190Z,23.79
2017-02-06T03:57:12.913Z,24.34
2017-02-06T03:57:53.698Z,24.8
2017-02-06T03:58:34.478Z,25.24
2017-02-06T03:59:15.291Z,25.47
2017-02-06T03:59:56.072Z,25.83
2017-02-06T04:00:36.762Z,26.07
2017-02-06T04:01:17.544Z,25.77
2017-02-06T04:01:58.318Z,25.08
2017-02-06T04:02:39.044Z,24.39
2017-02-06T04:03:19.888Z,24.21
2017-02-06T04:04:00.642Z,23.93
2017-02-06T04:04:41.428Z,23.75
2017-02-06T04:05:22.210Z,23.54
2017-02-06T04:06:02.940Z,23.36
2017-02-06T04:06:43.691Z,23.22
2017-02-06T04:07:25.373Z,23.12
2017-02-06T04:08:06.185Z,23.01
2017-02-06T04:08:46.931Z,22.92
2017-02-06T04:09:27.714Z,22.86
2017-02-06T04:10:09.159Z,22.86
2017-02-06T04:10:49.380Z,22.73
2017-02-06T04:11:30.126Z,22.68
2017-02-06T04:12:11.665Z,22.62
2017-02-06T04:12:53.083Z,22.58
2017-02-06T04:13:33.889Z,22.51
2017-02-06T04:14:14.670Z,22.52
2017-02-06T04:14:55.387Z,22.52
2017-02-06T04:15:36.141Z,22.37
2017-02-06T04:16:16.920Z,22.4
2017-02-06T04:16:57.689Z,22.35
2017-02-06T04:17:38.502Z,22.24
2017-02-06T04:18:19.249Z,22.17
2017-02-06T04:18:59.945Z,22.12
2017-02-06T04:19:40.655Z,22.27
2017-02-06T04:20:21.366Z,22.17
2017-02-06T04:21:02.232Z,22.18
2017-02-06T04:21:42.981Z,22.25
2017-02-06T04:22:23.639Z,22.65
2017-02-06T04:23:04.367Z,23.2
2017-02-06T04:23:45.114Z,23.66
2017-02-06T04:24:25.837Z,24.3
2017-02-06T04:25:06.651Z,24.77
2017-02-06T04:25:47.430Z,25.2
2017-02-06T04:26:28.168Z,25.47
2017-02-06T04:27:09.007Z,25.77
2017-02-06T04:27:49.769Z,25.88
2017-02-06T04:28:30.491Z,25.7
2017-02-06T04:29:11.219Z,25.06
2017-02-06T04:29:51.994Z,24.49
2017-02-06T04:30:32.744Z,24.15
2017-02-06T04:31:13.617Z,23.95
2017-02-06T04:31:54.398Z,23.63
2017-02-06T04:32:35.233Z,23.53
2017-02-06T04:33:15.998Z,23.38
2017-02-06T04:33:56.772Z,23.16
2017-02-06T04:34:37.561Z,23.12
2017-02-06T04:35:18.326Z,23.04
2017-02-06T04:35:59.132Z,22.83
2017-02-06T04:36:39.929Z,22.83
2017-02-06T04:37:20.606Z,22.76
2017-02-06T04:38:01.358Z,22.62
2017-02-06T04:39:52.093Z,22.54
2017-02-06T04:40:33.758Z,22.57
2017-02-06T04:41:13.563Z,22.49
2017-02-06T04:41:54.399Z,22.42
2017-02-06T04:42:35.107Z,22.28
2017-02-06T04:43:16.755Z,22.31
2017-02-06T04:43:56.634Z,22.28
2017-02-06T04:44:37.391Z,22.22
2017-02-06T04:45:18.771Z,22.2
2017-02-06T04:45:59.042Z,22.15
2017-02-06T04:46:39.920Z,22.15
2017-02-06T04:47:20.664Z,22.12
2017-02-06T04:48:01.384Z,22.09
2017-02-06T04:48:42.159Z,22.43
2017-02-06T04:49:23.033Z,22.82
2017-02-06T04:50:03.751Z,23.38
2017-02-06T04:50:44.450Z,23.97
2017-02-06T04:51:25.763Z,24.47
2017-02-06T04:52:06.036Z,24.91
2017-02-06T04:52:46.770Z,25.32
2017-02-06T04:53:27.549Z,25.62
2017-02-06T04:54:08.293Z,25.76
2017-02-06T04:54:49.125Z,25.91
2017-02-06T04:55:29.894Z,25.35
2017-02-06T04:56:10.628Z,24.68
2017-02-06T04:56:52.119Z,24.28
2017-02-06T04:57:32.869Z,23.94
2017-02-06T04:58:13.705Z,23.76
2017-02-06T04:58:54.423Z,23.57
2017-02-06T04:59:35.264Z,23.38
2017-02-06T05:00:16.031Z,23.22
2017-02-06T05:00:56.720Z,23.09
2017-02-06T05:01:37.525Z,23.04
2017-02-06T05:02:18.270Z,22.86
2017-02-06T05:02:59.077Z,22.94
2017-02-06T05:03:39.903Z,22.76
2017-02-06T05:04:20.755Z,22.8
2017-02-06T05:05:01.570Z,22.68
2017-02-06T05:05:42.352Z,22.62
2017-02-06T05:06:23.080Z,22.54
2017-02-06T05:07:03.804Z,22.58
2017-02-06T05:07:44.546Z,22.47
2017-02-06T05:08:26.133Z,22.42
2017-02-06T05:09:08.133Z,22.36
2017-02-06T05:09:49.772Z,22.31
2017-02-06T05:10:30.474Z,22.25
2017-02-06T05:11:11.778Z,22.27
2017-02-06T05:11:51.937Z,22.22
2017-02-06T05:12:32.719Z,22.07
2017-02-06T05:13:13.604Z,22.07
2017-02-06T05:13:54.467Z,22.12
2017-02-06T05:14:35.158Z,22.15
2017-02-06T05:15:15.979Z,22.1
2017-02-06T05:15:56.764Z,22.27
2017-02-06T05:16:37.491Z,22.62
2017-02-06T05:17:18.252Z,23.17
2017-02-06T05:17:59.061Z,23.7
2017-02-06T05:18:39.884Z,24.34
2017-02-06T05:19:20.757Z,24.84
2017-02-06T05:20:01.561Z,25.18
2017-02-06T05:20:42.412Z,25.57
2017-02-06T05:21:24.907Z,25.79
2017-02-06T05:22:05.696Z,26.02
2017-02-06T05:22:46.509Z,25.65
2017-02-06T05:23:27.253Z,25.08
2017-02-06T05:24:08.226Z,24.47
2017-02-06T05:24:48.998Z,24.08
2017-02-06T05:25:29.666Z,23.9
2017-02-06T05:26:10.456Z,23.68
2017-02-06T05:26:51.157Z,23.51
2017-02-06T05:27:32.021Z,23.38
2017-02-06T05:28:12.793Z,23.28
2017-02-06T05:28:53.510Z,23.16
2017-02-06T05:29:34.312Z,23.1
2017-02-06T05:30:15.781Z,22.88
2017-02-06T05:30:55.785Z,22.82
2017-02-06T05:31:36.524Z,22.65
2017-02-06T05:32:17.277Z,22.55
2017-02-06T05:32:58.581Z,22.65
2017-02-06T05:33:39.409Z,22.55
2017-02-06T05:34:20.276Z,22.52
2017-02-06T05:35:01.008Z,22.46
2017-02-06T05:35:42.345Z,22.42
2017-02-06T05:36:23.103Z,22.4
2017-02-06T05:37:03.833Z,22.42
2017-02-06T05:37:44.597Z,22.37
2017-02-06T05:38:25.350Z,22.36
2017-02-06T05:39:06.081Z,22.35
2017-02-06T05:39:46.835Z,22.27
2017-02-06T05:40:27.595Z,22.24
2017-02-06T05:41:08.367Z,22.33
2017-02-06T05:41:49.142Z,22.21
2017-02-06T05:42:29.914Z,22.12
2017-02-06T05:43:10.704Z,22.12
2017-02-06T05:43:51.519Z,22.12
2017-02-06T05:44:32.234Z,22.03
2017-02-06T05:45:13.029Z,21.91
2017-02-06T05:45:53.855Z,22.1
2017-02-06T05:46:34.616Z,22.43
2017-02-06T05:47:15.453Z,22.86
2017-02-06T05:47:56.208Z,23.4
2017-02-06T05:48:36.984Z,23.95
2017-02-06T05:49:17.680Z,24.42
2017-02-06T05:49:58.495Z,24.76
2017-02-06T05:50:39.254Z,25.2
2017-02-06T05:51:19.985Z,25.46
2017-02-06T05:52:00.784Z,25.69
2017-02-06T05:52:41.598Z,25.8
2017-02-06T05:53:22.465Z,25.45
2017-02-06T05:54:03.257Z,24.88
2017-02-06T05:54:44.798Z,24.4
2017-02-06T05:55:24.741Z,24.06
2017-02-06T05:56:05.607Z,23.79
2017-02-06T05:56:46.452Z,23.65
2017-02-06T05:57:27.799Z,23.43
2017-02-06T05:58:08.816Z,23.23
2017-02-06T05:58:48.772Z,23.1
2017-02-06T05:59:29.494Z,23.09
2017-02-06T06:00:10.338Z,22.92
2017-02-06T06:00:51.039Z,22.77
2017-02-06T06:01:31.850Z,22.79
2017-02-06T06:02:12.546Z,22.67
2017-02-06T06:02:53.368Z,22.64
2017-02-06T06:03:34.216Z,22.54
2017-02-06T06:04:15.013Z,22.52
2017-02-06T06:04:55.754Z,22.52
2017-02-06T06:05:36.590Z,22.54
2017-02-06T06:06:17.318Z,22.46
2017-02-06T06:06:58.092Z,22.28
2017-02-06T06:07:38.856Z,22.28
2017-02-06T06:08:19.683Z,22.28
2017-02-06T06:09:00.499Z,22.24
2017-02-06T06:09:41.260Z,22.24
2017-02-06T06:10:22.013Z,22.14
2017-02-06T06:11:02.737Z,22.06
2017-02-06T06:11:44.437Z,22.09
2017-02-06T06:12:25.256Z,22.05
2017-02-06T06:13:06.181Z,22.03
2017-02-06T06:13:46.946Z,21.98
2017-02-06T06:14:27.680Z,22.02
2017-02-06T06:15:08.410Z,21.98
2017-02-06T06:15:49.205Z,21.92
2017-02-06T06:16:29.983Z,21.99
2017-02-06T06:17:10.750Z,21.84
2017-02-06T06:17:51.494Z,21.91
2017-02-06T06:18:32.293Z,21.88
2017-02-06T06:19:13.036Z,21.94
2017-02-06T06:19:54.320Z,21.99
2017-02-06T06:20:35.145Z,21.9
2017-02-06T06:21:15.977Z,21.91
2017-02-06T06:21:56.767Z,21.88
2017-02-06T06:22:37.632Z,21.88
2017-02-06T06:23:18.440Z,22.02
2017-02-06T06:23:59.136Z,21.84
2017-02-06T06:24:39.929Z,21.86
2017-02-06T06:25:20.661Z,21.75
2017-02-06T06:26:01.385Z,21.65
2017-02-06T06:26:42.194Z,21.61
2017-02-06T06:27:22.899Z,21.64
2017-02-06T06:28:03.628Z,21.65
2017-02-06T06:28:45.307Z,21.68
2017-02-06T06:29:25.288Z,21.72
2017-02-06T06:30:06.011Z,21.72
2017-02-06T06:30:46.767Z,21.69
2017-02-06T06:31:27.547Z,21.64
2017-02-06T06:32:08.345Z,21.56
2017-02-06T06:32:49.153Z,21.59
2017-02-06T06:33:29.978Z,21.52
2017-02-06T06:34:10.803Z,21.68
2017-02-06T06:34:51.577Z,21.53
2017-02-06T06:35:32.317Z,21.43
2017-02-06T06:36:13.099Z,21.53
2017-02-06T06:36:53.777Z,21.49
2017-02-06T06:37:35.391Z,21.5
2017-02-06T06:38:16.140Z,21.5
2017-02-06T06:38:56.902Z,21.42
2017-02-06T06:39:37.617Z,21.46
2017-02-06T06:40:18.448Z,21.46
2017-02-06T06:40:59.199Z,21.42
2017-02-06T06:41:39.987Z,21.4
2017-02-06T06:42:20.805Z,21.43
2017-02-06T06:43:01.536Z,21.47
2017-02-06T06:43:42.256Z,21.4
2017-02-06T06:44:23.036Z,21.35
2017-02-06T06:45:03.780Z,21.42
2017-02-06T06:45:44.546Z,21.44
2017-02-06T06:46:25.400Z,21.42
2017-02-06T06:47:06.245Z,21.43
2017-02-06T06:47:47.000Z,21.43
2017-02-06T06:48:27.755Z,21.32
2017-02-06T06:49:08.536Z,21.42
2017-02-06T06:49:49.308Z,21.44
2017-02-06T06:50:30.088Z,21.43
2017-02-06T06:51:10.878Z,21.46
2017-02-06T06:51:51.704Z,21.43
2017-02-06T06:52:32.470Z,21.4
2017-02-06T06:53:13.238Z,21.37
2017-02-06T06:53:53.953Z,21.32
2017-02-06T06:54:34.694Z,21.27
2017-02-06T06:55:15.554Z,21.28
2017-02-06T06:55:56.383Z,21.27
2017-02-06T06:56:37.206Z,21.29
2017-02-06T06:57:17.996Z,21.1
2017-02-06T06:57:58.825Z,21.16
2017-02-06T06:58:39.528Z,21.09
2017-02-06T06:59:20.267Z,21.1
2017-02-06T07:00:01.085Z,21.17
2017-02-06T07:00:41.879Z,21.13
2017-02-06T07:01:22.718Z,21.12
2017-02-06T07:02:03.466Z,21.1
2017-02-06T07:02:44.242Z,21.07
2017-02-06T07:03:25.083Z,21.1
2017-02-06T07:04:05.843Z,21.12
2017-02-06T07:04:46.565Z,21.04
2017-02-06T07:05:27.385Z,21.04
2017-02-06T07:06:08.094Z,20.95
2017-02-06T07:06:48.986Z,20.95
2017-02-06T07:07:29.846Z,21.04
2017-02-06T07:08:10.663Z,20.99
2017-02-06T07:08:51.949Z,20.97
2017-02-06T07:09:32.771Z,20.98
2017-02-06T07:10:13.489Z,20.89
2017-02-06T07:10:54.162Z,20.94
2017-02-06T07:11:34.949Z,20.91
2017-02-06T07:12:15.707Z,20.91
2017-02-06T07:12:56.432Z,21.07
2017-02-06T07:13:37.133Z,20.97
2017-02-06T07:14:17.885Z,20.97
2017-02-06T07:14:58.745Z,20.95
2017-02-06T07:15:39.582Z,20.91
2017-02-06T07:16:20.422Z,20.87
2017-02-06T07:17:01.171Z,20.82
2017-02-06T07:17:42.007Z,20.88
2017-02-06T07:18:22.745Z,20.91
2017-02-06T07:19:03.459Z,20.77
2017-02-06T07:19:44.252Z,20.87
2017-02-06T07:20:25.090Z,20.76
2017-02-06T07:21:05.867Z,20.79
2017-02-06T07:21:46.690Z,20.79
2017-02-06T07:22:27.474Z,20.77
2017-02-06T07:23:08.197Z,20.73
2017-02-06T07:23:48.910Z,20.8
2017-02-06T07:24:29.689Z,20.76
2017-02-06T07:25:10.564Z,20.72
2017-02-06T07:25:51.296Z,20.76
2017-02-06T07:26:32.083Z,20.77
2017-02-06T07:27:12.841Z,20.77
2017-02-06T07:27:53.645Z,20.73
2017-02-06T07:28:34.406Z,20.64
2017-02-06T07:29:15.234Z,20.62
2017-02-06T07:29:55.993Z,20.69
2017-02-06T07:30:36.760Z,20.69
2017-02-06T07:31:17.523Z,20.69
2017-02-06T07:31:58.289Z,20.67
2017-02-06T07:32:39.056Z,20.64
2017-02-06T07:33:19.834Z,20.67
2017-02-06T07:34:00.674Z,20.64
2017-02-06T07:34:41.639Z,20.7
2017-02-06T07:35:22.294Z,20.66
2017-02-06T07:36:03.287Z,20.66
2017-02-06T07:36:44.163Z,20.61
2017-02-06T07:37:25.046Z,20.67
2017-02-06T07:38:05.769Z,20.64
2017-02-06T07:38:46.573Z,20.58
2017-02-06T07:39:30.112Z,20.62
2017-02-06T07:40:10.964Z,20.66
2017-02-06T07:40:51.742Z,20.58
2017-02-06T07:41:32.559Z,20.61
2017-02-06T07:42:13.261Z,20.66
2017-02-06T07:42:54.014Z,20.7
2017-02-06T07:43:34.799Z,20.66
2017-02-06T07:44:15.525Z,20.69
2017-02-06T07:44:56.309Z,20.73
2017-02-06T07:45:37.095Z,20.77
2017-02-06T07:46:17.854Z,20.62
2017-02-06T07:46:58.684Z,20.67
2017-02-06T07:47:39.462Z,20.64
2017-02-06T07:48:20.313Z,20.61
2017-02-06T07:49:01.105Z,20.59
2017-02-06T07:49:41.839Z,20.48
2017-02-06T07:50:22.580Z,20.43
2017-02-06T07:51:03.373Z,20.5
2017-02-06T07:51:44.093Z,20.48
2017-02-06T07:52:24.911Z,20.55
2017-02-06T07:53:05.723Z,20.55
2017-02-06T07:53:46.517Z,20.55
2017-02-06T07:54:27.360Z,20.55
2017-02-06T07:55:08.145Z,20.52
2017-02-06T07:55:48.925Z,20.52
2017-02-06T07:56:29.698Z,20.5
2017-02-06T07:57:10.488Z,20.41
2017-02-06T07:57:51.256Z,20.43
2017-02-06T07:58:32.000Z,20.54
2017-02-06T07:59:12.844Z,20.52
2017-02-06T07:59:53.651Z,20.51
2017-02-06T08:00:34.386Z,20.42
2017-02-06T08:01:15.293Z,20.5
2017-02-06T08:01:56.126Z,20.43
2017-02-06T08:02:36.863Z,20.54
2017-02-06T08:03:17.652Z,20.55
2017-02-06T08:03:58.353Z,20.57
2017-02-06T08:04:39.207Z,20.51
2017-02-06T08:05:19.916Z,20.57
2017-02-06T08:06:00.661Z,20.52
2017-02-06T08:06:41.410Z,20.57
2017-02-06T08:07:23.399Z,20.51
2017-02-06T08:08:04.213Z,20.58
2017-02-06T08:08:44.986Z,20.57
2017-02-06T08:09:25.766Z,20.48
2017-02-06T08:10:06.518Z,20.55
2017-02-06T08:10:47.294Z,20.52
2017-02-06T08:11:28.041Z,20.5
2017-02-06T08:12:08.776Z,20.5
2017-02-06T08:12:49.474Z,20.36
2017-02-06T08:13:30.341Z,20.43
2017-02-06T08:14:11.189Z,20.48
2017-02-06T08:14:51.961Z,20.43
2017-02-06T08:15:32.833Z,20.5
2017-02-06T08:16:13.612Z,20.5
2017-02-06T08:16:54.389Z,20.39
2017-02-06T08:17:35.228Z,20.35
2017-02-06T08:18:15.983Z,20.36
2017-02-06T08:18:56.810Z,20.35
2017-02-06T08:19:37.553Z,20.38
2017-02-06T08:20:18.382Z,20.38
2017-02-06T08:20:59.100Z,20.43
2017-02-06T08:21:39.902Z,20.5
2017-02-06T08:22:20.848Z,20.51
2017-02-06T08:23:02.169Z,20.39
2017-02-06T08:23:42.906Z,20.47
2017-02-06T08:24:23.650Z,20.41
2017-02-06T08:25:04.565Z,20.48
2017-02-06T08:25:45.359Z,20.5
2017-02-06T08:26:26.083Z,20.51
2017-02-06T08:27:06.814Z,20.48
2017-02-06T08:27:47.592Z,20.47
2017-02-06T08:28:28.289Z,20.48
2017-02-06T08:29:09.201Z,20.47
2017-02-06T08:29:50.115Z,20.47
2017-02-06T08:30:30.878Z,20.52
2017-02-06T08:31:11.689Z,20.5
2017-02-06T08:31:52.431Z,20.41
2017-02-06T08:32:33.167Z,20.48
2017-02-06T08:33:13.984Z,20.48
2017-02-06T08:33:54.689Z,20.55
2017-02-06T08:34:35.438Z,20.51
2017-02-06T08:35:16.186Z,20.51
2017-02-06T08:35:57.009Z,20.52
2017-02-06T08:36:37.796Z,20.52
2017-02-06T08:37:18.557Z,20.5
2017-02-06T08:37:59.243Z,20.47
2017-02-06T08:38:39.957Z,20.42
2017-02-06T08:39:20.782Z,20.52
2017-02-06T08:40:01.566Z,20.52
2017-02-06T08:40:42.326Z,20.51
2017-02-06T08:41:23.061Z,20.5
2017-02-06T08:42:03.821Z,20.54
2017-02-06T08:42:44.615Z,20.5
2017-02-06T08:43:25.408Z,20.51
2017-02-06T08:44:06.177Z,20.5
2017-02-06T08:44:46.983Z,20.52
2017-02-06T08:45:27.773Z,20.57
2017-02-06T08:46:08.522Z,20.5
2017-02-06T08:46:49.297Z,20.58
2017-02-06T08:47:30.154Z,20.62
2017-02-06T08:48:10.890Z,20.54
2017-02-06T08:48:51.657Z,20.61
2017-02-06T08:49:32.449Z,20.67
2017-02-06T08:50:13.287Z,20.64
2017-02-06T08:50:53.975Z,20.77
2017-02-06T08:51:34.855Z,20.62
2017-02-06T08:52:15.594Z,20.7
2017-02-06T08:52:56.391Z,20.82
2017-02-06T08:53:37.151Z,20.7
2017-02-06T08:54:17.955Z,20.69
2017-02-06T08:54:58.759Z,20.61